Wevelgem, Belgium
Current Conditions -  °F | °C
As of 1:30 AM on Saturday 22 Nov 2014 (Local Time) from LFQQ Reporting Station
Haze Haze  
Wind Chill: 39°   Ceiling: Unl
Heat Index: 43°   Visibility: 3mi
Dew Point: 43°   Wind: 6mph
Humidity: 100%   Direction: 130°SE
Pressure: 30"   Gusts: NA
Location:  50.8°N, 3.17°E
Report Text: LFQQ 220030Z AUTO 13005KT 5000 BR NSC 06/06 Q1016
Loading
Personal Weather Stations






























Interactive Weather Map New forecast layout! Learn more

10-Day Weather Forecast

Advertisements
Track Severe Weather on mobile